Aérodrome :
LOGIN :

S'inscrire | Disclaimer

   EN    FR    IT 

 










Légende :    VFR   VFR Marginal   IFR   IFR Intensif   IFR Très Intensif
Visi : 
Plafond : 
>= 8 km
>= 3000ft
5 à 8 km
1000 à 3000 ft
1500m à 5 km
500 à 1000 ft
800 à 1500m
200 à 500 ft
< 800m
< 200 ft
Symboles :   Orages  Brouillard  Fortes neiges  Fortes précipitations  Vent > 20 kt
SIGMETs :   Divers  Orages  Givrage  Turbulence  Onde Orograph.  Cendres Volcan.






- Altitude de l'aérodrome : 1276 ft
- Code IATA : STR


EDDS - Stuttgart

DERNIER METAR :
  • 291520Z 07010KT CAVOK 18/04 Q1023 NOSIG

METARs EXPIRÉS :
  • 291450Z 05010KT 010V080 CAVOK 19/03 Q1023 NOSIG
  • 291420Z 08012KT CAVOK 18/03 Q1023 NOSIG
  • 291350Z 08011KT 050V150 CAVOK 19/04 Q1023 NOSIG
  • 291320Z 06009KT 030V090 CAVOK 19/03 Q1024 NOSIG
  • 291250Z 04011KT CAVOK 19/03 Q1024 NOSIG

TAF TAF EDDS
Valide du 29 à 12h jusqu'au 30 à 12h UTC


291100Z 2912/3012 06011KT CAVOK
BECMG 2917/2919 05006KT
BECMG 2919/2921 VRB02KT
BECMG 3006/3008 05010KT



MET'MAP, la Météo Aéronautique d'un coup d'oeil ! - Copyright ORBIFLY Décembre 2007 - Disclaimer

ORBIFLY MET'MAP TEAM :

Programmation & Développement : Alexandra Zaïnal
Sur une idée originale de : Baudouin d'Aumeries
Assistance à la programmation : Marc-Olivier Méhu
Soutien technique & logistique : Manuel Goepfert

Contact : metmap@orbifly.com




SOURCES & CREDITS :

   NOAA